sensor_id;sensor_type;location;lat;lon;timestamp;P1;durP1;ratioP1;P2;durP2;ratioP2
65936;SDS011;52707;52.086;5.418;2023-08-12T00:01:32;12.40;;;5.38;;
65936;SDS011;52707;52.086;5.418;2023-08-12T00:03:58;15.85;;;5.72;;
65936;SDS011;52707;52.086;5.418;2023-08-12T00:06:25;13.27;;;5.80;;
65936;SDS011;52707;52.086;5.418;2023-08-12T00:08:51;8.50;;;4.97;;
65936;SDS011;52707;52.086;5.418;2023-08-12T00:11:17;7.65;;;4.90;;
65936;SDS011;52707;52.086;5.418;2023-08-12T00:13:44;13.77;;;5.35;;
65936;SDS011;52707;52.086;5.418;2023-08-12T00:16:10;7.85;;;5.22;;
65936;SDS011;52707;52.086;5.418;2023-08-12T00:18:37;14.23;;;5.25;;
65936;SDS011;52707;52.086;5.418;2023-08-12T00:21:07;14.50;;;5.00;;
65936;SDS011;52707;52.086;5.418;2023-08-12T00:23:37;14.60;;;5.47;;
65936;SDS011;52707;52.086;5.418;2023-08-12T00:26:03;17.30;;;5.30;;
65936;SDS011;52707;52.086;5.418;2023-08-12T00:28:29;20.15;;;6.05;;
65936;SDS011;52707;52.086;5.418;2023-08-12T00:30:56;12.48;;;5.68;;
65936;SDS011;52707;52.086;5.418;2023-08-12T00:33:22;13.95;;;5.57;;
65936;SDS011;52707;52.086;5.418;2023-08-12T00:35:49;15.02;;;6.13;;
65936;SDS011;52707;52.086;5.418;2023-08-12T00:38:15;16.08;;;5.93;;
65936;SDS011;52707;52.086;5.418;2023-08-12T00:40:41;13.38;;;6.63;;
65936;SDS011;52707;52.086;5.418;2023-08-12T00:43:08;13.77;;;6.22;;
65936;SDS011;52707;52.086;5.418;2023-08-12T00:45:35;13.30;;;6.15;;
65936;SDS011;52707;52.086;5.418;2023-08-12T00:48:02;16.33;;;7.07;;
65936;SDS011;52707;52.086;5.418;2023-08-12T00:50:29;20.80;;;7.05;;
65936;SDS011;52707;52.086;5.418;2023-08-12T00:52:55;19.92;;;7.47;;
65936;SDS011;52707;52.086;5.418;2023-08-12T00:55:21;16.25;;;8.15;;
65936;SDS011;52707;52.086;5.418;2023-08-12T00:57:48;20.63;;;7.35;;
65936;SDS011;52707;52.086;5.418;2023-08-12T01:00:14;17.58;;;7.63;;
65936;SDS011;52707;52.086;5.418;2023-08-12T01:02:42;15.93;;;8.30;;
65936;SDS011;52707;52.086;5.418;2023-08-12T01:05:12;18.77;;;8.20;;
65936;SDS011;52707;52.086;5.418;2023-08-12T01:07:38;16.63;;;8.73;;
65936;SDS011;52707;52.086;5.418;2023-08-12T01:10:04;17.23;;;9.00;;
65936;SDS011;52707;52.086;5.418;2023-08-12T01:12:32;18.83;;;8.75;;
65936;SDS011;52707;52.086;5.418;2023-08-12T01:17:29;15.80;;;8.50;;
65936;SDS011;52707;52.086;5.418;2023-08-12T01:19:57;22.15;;;9.20;;
65936;SDS011;52707;52.086;5.418;2023-08-12T01:22:24;22.35;;;10.43;;
65936;SDS011;52707;52.086;5.418;2023-08-12T01:24:51;16.83;;;8.93;;
65936;SDS011;52707;52.086;5.418;2023-08-12T01:27:18;20.30;;;9.77;;
65936;SDS011;52707;52.086;5.418;2023-08-12T01:29:47;18.17;;;10.52;;
65936;SDS011;52707;52.086;5.418;2023-08-12T01:34:53;24.75;;;10.13;;
65936;SDS011;52707;52.086;5.418;2023-08-12T01:37:23;20.90;;;10.95;;
65936;SDS011;52707;52.086;5.418;2023-08-12T01:39:50;23.23;;;10.60;;
65936;SDS011;52707;52.086;5.418;2023-08-12T01:42:18;22.13;;;11.30;;
65936;SDS011;52707;52.086;5.418;2023-08-12T01:44:46;19.70;;;10.38;;
65936;SDS011;52707;52.086;5.418;2023-08-12T01:47:13;19.63;;;10.68;;
65936;SDS011;52707;52.086;5.418;2023-08-12T01:49:39;27.40;;;10.60;;
65936;SDS011;52707;52.086;5.418;2023-08-12T01:52:06;21.92;;;9.73;;
65936;SDS011;52707;52.086;5.418;2023-08-12T01:54:32;20.40;;;9.57;;
65936;SDS011;52707;52.086;5.418;2023-08-12T01:57:02;14.98;;;9.38;;
65936;SDS011;52707;52.086;5.418;2023-08-12T01:59:29;23.50;;;10.00;;
65936;SDS011;52707;52.086;5.418;2023-08-12T02:01:55;23.88;;;10.35;;
65936;SDS011;52707;52.086;5.418;2023-08-12T02:04:22;22.65;;;10.98;;
65936;SDS011;52707;52.086;5.418;2023-08-12T02:06:48;27.00;;;11.15;;
65936;SDS011;52707;52.086;5.418;2023-08-12T02:09:15;22.95;;;10.75;;
65936;SDS011;52707;52.086;5.418;2023-08-12T02:11:42;25.08;;;10.77;;
65936;SDS011;52707;52.086;5.418;2023-08-12T02:14:08;24.25;;;10.70;;
65936;SDS011;52707;52.086;5.418;2023-08-12T02:16:34;21.15;;;10.43;;
65936;SDS011;52707;52.086;5.418;2023-08-12T02:19:01;25.45;;;10.95;;
65936;SDS011;52707;52.086;5.418;2023-08-12T02:21:27;24.08;;;10.70;;
65936;SDS011;52707;52.086;5.418;2023-08-12T02:23:54;20.95;;;10.93;;
65936;SDS011;52707;52.086;5.418;2023-08-12T02:26:20;19.75;;;9.82;;
65936;SDS011;52707;52.086;5.418;2023-08-12T02:28:47;19.45;;;9.82;;
65936;SDS011;52707;52.086;5.418;2023-08-12T02:31:14;18.30;;;10.27;;
65936;SDS011;52707;52.086;5.418;2023-08-12T02:33:41;20.45;;;10.95;;
65936;SDS011;52707;52.086;5.418;2023-08-12T02:36:08;20.92;;;10.75;;
65936;SDS011;52707;52.086;5.418;2023-08-12T02:38:34;20.55;;;11.45;;
65936;SDS011;52707;52.086;5.418;2023-08-12T02:41:01;23.45;;;10.88;;
65936;SDS011;52707;52.086;5.418;2023-08-12T02:43:27;21.65;;;11.20;;
65936;SDS011;52707;52.086;5.418;2023-08-12T02:45:53;25.23;;;11.23;;
65936;SDS011;52707;52.086;5.418;2023-08-12T02:48:20;21.30;;;11.43;;
65936;SDS011;52707;52.086;5.418;2023-08-12T02:50:47;21.92;;;11.88;;
65936;SDS011;52707;52.086;5.418;2023-08-12T02:53:14;21.33;;;11.50;;
65936;SDS011;52707;52.086;5.418;2023-08-12T02:55:41;29.30;;;12.38;;
65936;SDS011;52707;52.086;5.418;2023-08-12T02:58:07;31.35;;;12.60;;
65936;SDS011;52707;52.086;5.418;2023-08-12T03:00:34;29.55;;;12.80;;
65936;SDS011;52707;52.086;5.418;2023-08-12T03:03:00;26.17;;;13.50;;
65936;SDS011;52707;52.086;5.418;2023-08-12T03:05:27;26.23;;;13.35;;
65936;SDS011;52707;52.086;5.418;2023-08-12T03:07:53;23.50;;;12.95;;
65936;SDS011;52707;52.086;5.418;2023-08-12T03:10:20;24.55;;;13.07;;
65936;SDS011;52707;52.086;5.418;2023-08-12T03:12:46;24.27;;;12.65;;
65936;SDS011;52707;52.086;5.418;2023-08-12T03:15:13;29.88;;;13.50;;
65936;SDS011;52707;52.086;5.418;2023-08-12T03:17:39;30.70;;;13.00;;
65936;SDS011;52707;52.086;5.418;2023-08-12T03:20:06;25.25;;;12.77;;
65936;SDS011;52707;52.086;5.418;2023-08-12T03:22:37;22.95;;;12.68;;
65936;SDS011;52707;52.086;5.418;2023-08-12T03:25:04;25.10;;;13.73;;
65936;SDS011;52707;52.086;5.418;2023-08-12T03:27:31;29.85;;;13.52;;
65936;SDS011;52707;52.086;5.418;2023-08-12T03:29:57;25.60;;;12.48;;
65936;SDS011;52707;52.086;5.418;2023-08-12T03:32:24;19.25;;;12.35;;
65936;SDS011;52707;52.086;5.418;2023-08-12T03:34:51;30.15;;;13.80;;
65936;SDS011;52707;52.086;5.418;2023-08-12T03:37:18;29.73;;;13.32;;
65936;SDS011;52707;52.086;5.418;2023-08-12T03:39:44;23.08;;;13.32;;
65936;SDS011;52707;52.086;5.418;2023-08-12T03:42:11;21.17;;;13.15;;
65936;SDS011;52707;52.086;5.418;2023-08-12T03:44:37;26.52;;;12.57;;
65936;SDS011;52707;52.086;5.418;2023-08-12T03:47:03;31.02;;;13.80;;
65936;SDS011;52707;52.086;5.418;2023-08-12T03:49:30;23.48;;;12.93;;
65936;SDS011;52707;52.086;5.418;2023-08-12T03:51:56;30.63;;;14.23;;
65936;SDS011;52707;52.086;5.418;2023-08-12T03:54:23;27.20;;;12.98;;
65936;SDS011;52707;52.086;5.418;2023-08-12T03:56:49;21.50;;;13.32;;
65936;SDS011;52707;52.086;5.418;2023-08-12T03:59:15;30.25;;;13.45;;
65936;SDS011;52707;52.086;5.418;2023-08-12T04:01:42;24.15;;;12.93;;
65936;SDS011;52707;52.086;5.418;2023-08-12T04:04:08;26.30;;;13.35;;
65936;SDS011;52707;52.086;5.418;2023-08-12T04:06:39;28.13;;;14.18;;
65936;SDS011;52707;52.086;5.418;2023-08-12T04:09:05;26.02;;;14.05;;
65936;SDS011;52707;52.086;5.418;2023-08-12T04:11:31;30.95;;;14.65;;
65936;SDS011;52707;52.086;5.418;2023-08-12T04:13:58;27.40;;;14.20;;
65936;SDS011;52707;52.086;5.418;2023-08-12T04:16:24;26.73;;;15.18;;
65936;SDS011;52707;52.086;5.418;2023-08-12T04:18:51;30.35;;;15.20;;
65936;SDS011;52707;52.086;5.418;2023-08-12T04:21:19;33.63;;;16.52;;
65936;SDS011;52707;52.086;5.418;2023-08-12T04:23:46;28.67;;;15.80;;
65936;SDS011;52707;52.086;5.418;2023-08-12T04:26:12;32.95;;;17.27;;
65936;SDS011;52707;52.086;5.418;2023-08-12T04:28:38;29.80;;;16.48;;
65936;SDS011;52707;52.086;5.418;2023-08-12T04:31:06;31.60;;;16.95;;
65936;SDS011;52707;52.086;5.418;2023-08-12T04:33:32;29.30;;;14.98;;
65936;SDS011;52707;52.086;5.418;2023-08-12T04:35:58;31.48;;;16.38;;
65936;SDS011;52707;52.086;5.418;2023-08-12T04:38:25;28.38;;;15.50;;
65936;SDS011;52707;52.086;5.418;2023-08-12T04:40:54;33.60;;;16.25;;
65936;SDS011;52707;52.086;5.418;2023-08-12T04:43:21;25.83;;;15.07;;
65936;SDS011;52707;52.086;5.418;2023-08-12T04:45:47;31.38;;;15.35;;
65936;SDS011;52707;52.086;5.418;2023-08-12T04:48:14;36.00;;;16.33;;
65936;SDS011;52707;52.086;5.418;2023-08-12T04:50:43;26.70;;;13.93;;
65936;SDS011;52707;52.086;5.418;2023-08-12T04:53:10;26.48;;;13.95;;
65936;SDS011;52707;52.086;5.418;2023-08-12T04:55:36;28.80;;;14.30;;
65936;SDS011;52707;52.086;5.418;2023-08-12T04:58:03;24.77;;;13.82;;
65936;SDS011;52707;52.086;5.418;2023-08-12T05:00:30;23.50;;;12.82;;
65936;SDS011;52707;52.086;5.418;2023-08-12T05:02:57;24.15;;;12.80;;
65936;SDS011;52707;52.086;5.418;2023-08-12T05:05:23;29.33;;;14.10;;
65936;SDS011;52707;52.086;5.418;2023-08-12T05:07:49;22.05;;;11.82;;
65936;SDS011;52707;52.086;5.418;2023-08-12T05:10:16;25.77;;;11.35;;
65936;SDS011;52707;52.086;5.418;2023-08-12T05:12:43;20.05;;;11.15;;
65936;SDS011;52707;52.086;5.418;2023-08-12T05:15:10;24.23;;;11.07;;
65936;SDS011;52707;52.086;5.418;2023-08-12T05:17:37;24.67;;;12.60;;
65936;SDS011;52707;52.086;5.418;2023-08-12T05:20:03;28.70;;;12.63;;
65936;SDS011;52707;52.086;5.418;2023-08-12T05:22:30;19.65;;;12.15;;
65936;SDS011;52707;52.086;5.418;2023-08-12T05:24:56;23.58;;;12.35;;
65936;SDS011;52707;52.086;5.418;2023-08-12T05:27:23;23.08;;;13.25;;
65936;SDS011;52707;52.086;5.418;2023-08-12T05:29:49;25.38;;;11.82;;
65936;SDS011;52707;52.086;5.418;2023-08-12T05:32:16;25.58;;;12.15;;
65936;SDS011;52707;52.086;5.418;2023-08-12T05:34:42;22.48;;;12.38;;
65936;SDS011;52707;52.086;5.418;2023-08-12T05:37:09;27.45;;;12.85;;
65936;SDS011;52707;52.086;5.418;2023-08-12T05:39:36;33.03;;;14.38;;
65936;SDS011;52707;52.086;5.418;2023-08-12T05:42:02;26.05;;;13.68;;
65936;SDS011;52707;52.086;5.418;2023-08-12T05:44:29;26.10;;;13.15;;
65936;SDS011;52707;52.086;5.418;2023-08-12T05:46:55;24.35;;;13.75;;
65936;SDS011;52707;52.086;5.418;2023-08-12T05:49:21;27.55;;;13.20;;
65936;SDS011;52707;52.086;5.418;2023-08-12T05:51:48;22.98;;;13.85;;
65936;SDS011;52707;52.086;5.418;2023-08-12T05:54:15;31.15;;;14.43;;
65936;SDS011;52707;52.086;5.418;2023-08-12T05:56:41;23.23;;;12.70;;
65936;SDS011;52707;52.086;5.418;2023-08-12T05:59:07;23.55;;;12.85;;
65936;SDS011;52707;52.086;5.418;2023-08-12T06:01:34;25.25;;;13.30;;
65936;SDS011;52707;52.086;5.418;2023-08-12T06:04:00;18.42;;;11.50;;
65936;SDS011;52707;52.086;5.418;2023-08-12T06:06:27;20.48;;;11.02;;
65936;SDS011;52707;52.086;5.418;2023-08-12T06:08:53;18.92;;;11.38;;
65936;SDS011;52707;52.086;5.418;2023-08-12T06:11:19;22.45;;;10.80;;
65936;SDS011;52707;52.086;5.418;2023-08-12T06:13:46;22.30;;;9.95;;
65936;SDS011;52707;52.086;5.418;2023-08-12T06:16:12;19.67;;;9.63;;
65936;SDS011;52707;52.086;5.418;2023-08-12T06:18:38;15.45;;;8.75;;
65936;SDS011;52707;52.086;5.418;2023-08-12T06:21:05;15.77;;;8.43;;
65936;SDS011;52707;52.086;5.418;2023-08-12T06:23:31;15.18;;;8.68;;
65936;SDS011;52707;52.086;5.418;2023-08-12T06:25:57;16.75;;;9.38;;
65936;SDS011;52707;52.086;5.418;2023-08-12T06:28:24;15.75;;;9.25;;
65936;SDS011;52707;52.086;5.418;2023-08-12T06:30:50;16.58;;;9.38;;
65936;SDS011;52707;52.086;5.418;2023-08-12T06:33:17;14.73;;;9.13;;
65936;SDS011;52707;52.086;5.418;2023-08-12T06:35:43;12.75;;;8.27;;
65936;SDS011;52707;52.086;5.418;2023-08-12T06:38:11;17.88;;;8.82;;
65936;SDS011;52707;52.086;5.418;2023-08-12T06:40:38;10.98;;;7.70;;
65936;SDS011;52707;52.086;5.418;2023-08-12T06:43:04;13.70;;;8.10;;
65936;SDS011;52707;52.086;5.418;2023-08-12T06:45:30;13.52;;;8.48;;
65936;SDS011;52707;52.086;5.418;2023-08-12T06:47:57;13.02;;;8.07;;
65936;SDS011;52707;52.086;5.418;2023-08-12T06:50:23;13.75;;;7.85;;
65936;SDS011;52707;52.086;5.418;2023-08-12T06:52:50;10.73;;;7.18;;
65936;SDS011;52707;52.086;5.418;2023-08-12T06:55:17;11.75;;;7.88;;
65936;SDS011;52707;52.086;5.418;2023-08-12T06:57:43;12.90;;;7.40;;
65936;SDS011;52707;52.086;5.418;2023-08-12T07:00:09;11.68;;;8.40;;
65936;SDS011;52707;52.086;5.418;2023-08-12T07:02:36;11.18;;;8.15;;
65936;SDS011;52707;52.086;5.418;2023-08-12T07:05:02;10.02;;;7.07;;
65936;SDS011;52707;52.086;5.418;2023-08-12T07:07:30;10.63;;;7.32;;
65936;SDS011;52707;52.086;5.418;2023-08-12T07:09:57;15.02;;;8.02;;
65936;SDS011;52707;52.086;5.418;2023-08-12T07:12:23;12.77;;;7.65;;
65936;SDS011;52707;52.086;5.418;2023-08-12T07:14:49;12.38;;;8.43;;
65936;SDS011;52707;52.086;5.418;2023-08-12T07:17:16;11.32;;;7.97;;
65936;SDS011;52707;52.086;5.418;2023-08-12T07:19:42;11.20;;;7.60;;
65936;SDS011;52707;52.086;5.418;2023-08-12T07:22:08;14.82;;;7.75;;
65936;SDS011;52707;52.086;5.418;2023-08-12T07:24:35;13.52;;;7.93;;
65936;SDS011;52707;52.086;5.418;2023-08-12T07:27:02;9.15;;;6.85;;
65936;SDS011;52707;52.086;5.418;2023-08-12T07:29:31;11.27;;;5.65;;
65936;SDS011;52707;52.086;5.418;2023-08-12T07:31:58;10.25;;;5.10;;
65936;SDS011;52707;52.086;5.418;2023-08-12T07:34:24;8.20;;;5.00;;
65936;SDS011;52707;52.086;5.418;2023-08-12T07:36:53;7.78;;;4.80;;
65936;SDS011;52707;52.086;5.418;2023-08-12T07:39:20;8.55;;;4.95;;
65936;SDS011;52707;52.086;5.418;2023-08-12T07:41:46;9.05;;;5.10;;
65936;SDS011;52707;52.086;5.418;2023-08-12T07:44:12;10.70;;;4.40;;
65936;SDS011;52707;52.086;5.418;2023-08-12T07:46:39;10.15;;;5.38;;
65936;SDS011;52707;52.086;5.418;2023-08-12T07:49:05;8.57;;;4.90;;
65936;SDS011;52707;52.086;5.418;2023-08-12T07:51:32;7.28;;;5.32;;
65936;SDS011;52707;52.086;5.418;2023-08-12T07:53:58;7.93;;;5.50;;
65936;SDS011;52707;52.086;5.418;2023-08-12T07:56:24;7.55;;;6.13;;
65936;SDS011;52707;52.086;5.418;2023-08-12T07:58:51;5.78;;;4.80;;
65936;SDS011;52707;52.086;5.418;2023-08-12T08:01:17;5.13;;;4.63;;
65936;SDS011;52707;52.086;5.418;2023-08-12T08:03:44;6.57;;;4.25;;
65936;SDS011;52707;52.086;5.418;2023-08-12T08:06:10;7.05;;;5.22;;
65936;SDS011;52707;52.086;5.418;2023-08-12T08:08:36;6.38;;;5.13;;
65936;SDS011;52707;52.086;5.418;2023-08-12T08:11:03;9.07;;;6.20;;
65936;SDS011;52707;52.086;5.418;2023-08-12T08:13:29;8.55;;;5.90;;
65936;SDS011;52707;52.086;5.418;2023-08-12T08:15:56;8.82;;;5.95;;
65936;SDS011;52707;52.086;5.418;2023-08-12T08:18:22;5.35;;;4.50;;
65936;SDS011;52707;52.086;5.418;2023-08-12T08:20:49;7.80;;;3.50;;
65936;SDS011;52707;52.086;5.418;2023-08-12T08:23:15;3.10;;;2.80;;
65936;SDS011;52707;52.086;5.418;2023-08-12T08:25:42;4.32;;;3.10;;
65936;SDS011;52707;52.086;5.418;2023-08-12T08:28:08;3.10;;;2.90;;
65936;SDS011;52707;52.086;5.418;2023-08-12T08:30:36;7.28;;;2.65;;
65936;SDS011;52707;52.086;5.418;2023-08-12T08:33:02;2.65;;;2.10;;
65936;SDS011;52707;52.086;5.418;2023-08-12T08:35:29;2.20;;;2.10;;
65936;SDS011;52707;52.086;5.418;2023-08-12T08:37:55;2.22;;;2.10;;
65936;SDS011;52707;52.086;5.418;2023-08-12T08:40:21;1.70;;;1.60;;
65936;SDS011;52707;52.086;5.418;2023-08-12T08:42:51;1.30;;;1.20;;
65936;SDS011;52707;52.086;5.418;2023-08-12T08:45:18;1.50;;;1.38;;
65936;SDS011;52707;52.086;5.418;2023-08-12T08:47:44;1.83;;;1.73;;
65936;SDS011;52707;52.086;5.418;2023-08-12T08:50:11;1.48;;;1.40;;
65936;SDS011;52707;52.086;5.418;2023-08-12T08:52:38;1.70;;;1.58;;
65936;SDS011;52707;52.086;5.418;2023-08-12T08:55:05;2.22;;;1.75;;
65936;SDS011;52707;52.086;5.418;2023-08-12T08:57:33;6.32;;;1.67;;
65936;SDS011;52707;52.086;5.418;2023-08-12T09:00:10;1.00;;;1.00;;
65936;SDS011;52707;52.086;5.418;2023-08-12T09:02:40;1.40;;;1.30;;
65936;SDS011;52707;52.086;5.418;2023-08-12T09:05:07;1.55;;;1.10;;
65936;SDS011;52707;52.086;5.418;2023-08-12T09:07:34;1.10;;;1.10;;
65936;SDS011;52707;52.086;5.418;2023-08-12T09:10:00;1.27;;;1.08;;
65936;SDS011;52707;52.086;5.418;2023-08-12T09:12:27;1.60;;;1.33;;
65936;SDS011;52707;52.086;5.418;2023-08-12T09:14:54;3.08;;;1.40;;
65936;SDS011;52707;52.086;5.418;2023-08-12T09:17:20;3.85;;;1.40;;
65936;SDS011;52707;52.086;5.418;2023-08-12T09:19:47;4.10;;;1.50;;
65936;SDS011;52707;52.086;5.418;2023-08-12T09:22:13;4.32;;;1.38;;
65936;SDS011;52707;52.086;5.418;2023-08-12T09:24:40;3.15;;;1.55;;
65936;SDS011;52707;52.086;5.418;2023-08-12T09:27:06;7.00;;;1.60;;
65936;SDS011;52707;52.086;5.418;2023-08-12T09:29:33;5.38;;;1.52;;
65936;SDS011;52707;52.086;5.418;2023-08-12T09:32:09;7.15;;;1.63;;
65936;SDS011;52707;52.086;5.418;2023-08-12T09:34:36;3.25;;;1.30;;
65936;SDS011;52707;52.086;5.418;2023-08-12T09:37:03;7.43;;;1.70;;
65936;SDS011;52707;52.086;5.418;2023-08-12T09:39:29;5.03;;;1.50;;
65936;SDS011;52707;52.086;5.418;2023-08-12T09:41:56;4.18;;;1.52;;
65936;SDS011;52707;52.086;5.418;2023-08-12T09:44:24;6.57;;;1.95;;
65936;SDS011;52707;52.086;5.418;2023-08-12T09:46:56;6.15;;;1.58;;
65936;SDS011;52707;52.086;5.418;2023-08-12T09:49:22;8.02;;;2.22;;
65936;SDS011;52707;52.086;5.418;2023-08-12T09:51:49;7.78;;;1.85;;
65936;SDS011;52707;52.086;5.418;2023-08-12T09:54:17;3.22;;;1.60;;
65936;SDS011;52707;52.086;5.418;2023-08-12T09:56:43;6.28;;;1.73;;
65936;SDS011;52707;52.086;5.418;2023-08-12T09:59:13;5.70;;;1.42;;
65936;SDS011;52707;52.086;5.418;2023-08-12T10:01:42;6.93;;;2.25;;
65936;SDS011;52707;52.086;5.418;2023-08-12T10:04:10;4.22;;;1.70;;
65936;SDS011;52707;52.086;5.418;2023-08-12T10:06:39;4.03;;;1.60;;
65936;SDS011;52707;52.086;5.418;2023-08-12T10:09:06;9.00;;;2.45;;
65936;SDS011;52707;52.086;5.418;2023-08-12T10:11:34;3.53;;;1.73;;
65936;SDS011;52707;52.086;5.418;2023-08-12T10:14:02;4.68;;;1.85;;
65936;SDS011;52707;52.086;5.418;2023-08-12T10:16:29;7.13;;;2.42;;
65936;SDS011;52707;52.086;5.418;2023-08-12T10:18:57;5.85;;;1.60;;
65936;SDS011;52707;52.086;5.418;2023-08-12T10:21:24;4.75;;;1.77;;
65936;SDS011;52707;52.086;5.418;2023-08-12T10:23:50;6.20;;;1.70;;
65936;SDS011;52707;52.086;5.418;2023-08-12T10:26:16;4.30;;;1.55;;
65936;SDS011;52707;52.086;5.418;2023-08-12T10:28:43;9.30;;;2.08;;
65936;SDS011;52707;52.086;5.418;2023-08-12T10:31:11;7.15;;;1.80;;
65936;SDS011;52707;52.086;5.418;2023-08-12T10:33:38;7.32;;;2.20;;
65936;SDS011;52707;52.086;5.418;2023-08-12T10:36:05;13.02;;;2.13;;
65936;SDS011;52707;52.086;5.418;2023-08-12T10:38:31;5.93;;;2.10;;
65936;SDS011;52707;52.086;5.418;2023-08-12T10:41:14;10.27;;;2.33;;
65936;SDS011;52707;52.086;5.418;2023-08-12T10:46:23;8.75;;;1.77;;
65936;SDS011;52707;52.086;5.418;2023-08-12T10:48:55;8.52;;;2.38;;
65936;SDS011;52707;52.086;5.418;2023-08-12T10:51:38;9.57;;;2.15;;
65936;SDS011;52707;52.086;5.418;2023-08-12T10:54:14;6.05;;;2.00;;
65936;SDS011;52707;52.086;5.418;2023-08-12T11:04:52;8.82;;;2.50;;
65936;SDS011;52707;52.086;5.418;2023-08-12T11:07:19;7.65;;;1.80;;
65936;SDS011;52707;52.086;5.418;2023-08-12T11:09:50;9.73;;;2.25;;
65936;SDS011;52707;52.086;5.418;2023-08-12T11:12:18;10.02;;;2.50;;
65936;SDS011;52707;52.086;5.418;2023-08-12T11:14:48;6.18;;;2.03;;
65936;SDS011;52707;52.086;5.418;2023-08-12T11:17:15;10.75;;;2.33;;
65936;SDS011;52707;52.086;5.418;2023-08-12T11:19:42;12.43;;;2.22;;
65936;SDS011;52707;52.086;5.418;2023-08-12T11:22:08;10.50;;;2.58;;
65936;SDS011;52707;52.086;5.418;2023-08-12T11:24:36;13.13;;;2.17;;
65936;SDS011;52707;52.086;5.418;2023-08-12T11:27:03;12.20;;;2.70;;
65936;SDS011;52707;52.086;5.418;2023-08-12T11:29:29;9.40;;;1.90;;
65936;SDS011;52707;52.086;5.418;2023-08-12T11:31:56;10.80;;;2.50;;
65936;SDS011;52707;52.086;5.418;2023-08-12T11:34:22;8.00;;;2.05;;
65936;SDS011;52707;52.086;5.418;2023-08-12T11:36:48;8.88;;;2.10;;
65936;SDS011;52707;52.086;5.418;2023-08-12T11:39:16;6.20;;;2.10;;
65936;SDS011;52707;52.086;5.418;2023-08-12T11:41:42;9.57;;;2.15;;
65936;SDS011;52707;52.086;5.418;2023-08-12T11:44:14;9.25;;;2.13;;
65936;SDS011;52707;52.086;5.418;2023-08-12T11:46:41;8.98;;;1.83;;
65936;SDS011;52707;52.086;5.418;2023-08-12T11:49:07;11.60;;;2.75;;
65936;SDS011;52707;52.086;5.418;2023-08-12T11:51:34;5.75;;;1.67;;
65936;SDS011;52707;52.086;5.418;2023-08-12T11:54:01;12.77;;;2.33;;
65936;SDS011;52707;52.086;5.418;2023-08-12T11:56:27;4.63;;;1.98;;
65936;SDS011;52707;52.086;5.418;2023-08-12T11:58:54;6.65;;;2.15;;
65936;SDS011;52707;52.086;5.418;2023-08-12T12:01:20;5.30;;;1.73;;
65936;SDS011;52707;52.086;5.418;2023-08-12T12:03:51;13.90;;;2.00;;
65936;SDS011;52707;52.086;5.418;2023-08-12T12:06:17;6.97;;;1.80;;
65936;SDS011;52707;52.086;5.418;2023-08-12T12:08:44;9.35;;;2.35;;
65936;SDS011;52707;52.086;5.418;2023-08-12T12:11:10;10.27;;;2.00;;
65936;SDS011;52707;52.086;5.418;2023-08-12T12:13:37;9.02;;;1.88;;
65936;SDS011;52707;52.086;5.418;2023-08-12T12:16:03;6.93;;;1.88;;
65936;SDS011;52707;52.086;5.418;2023-08-12T12:18:36;8.88;;;2.25;;
65936;SDS011;52707;52.086;5.418;2023-08-12T12:21:02;9.05;;;2.00;;
65936;SDS011;52707;52.086;5.418;2023-08-12T12:23:28;11.88;;;1.92;;
65936;SDS011;52707;52.086;5.418;2023-08-12T12:26:01;10.20;;;2.20;;
65936;SDS011;52707;52.086;5.418;2023-08-12T12:28:28;8.55;;;1.90;;
65936;SDS011;52707;52.086;5.418;2023-08-12T12:30:54;7.97;;;2.00;;
65936;SDS011;52707;52.086;5.418;2023-08-12T12:33:21;10.77;;;2.42;;
65936;SDS011;52707;52.086;5.418;2023-08-12T12:35:47;9.70;;;1.98;;
65936;SDS011;52707;52.086;5.418;2023-08-12T12:38:24;8.00;;;1.83;;
65936;SDS011;52707;52.086;5.418;2023-08-12T12:40:50;7.63;;;1.52;;
65936;SDS011;52707;52.086;5.418;2023-08-12T12:43:16;11.45;;;2.60;;
65936;SDS011;52707;52.086;5.418;2023-08-12T12:45:43;13.00;;;2.10;;
65936;SDS011;52707;52.086;5.418;2023-08-12T12:48:10;9.13;;;2.28;;
65936;SDS011;52707;52.086;5.418;2023-08-12T12:50:36;13.90;;;2.20;;
65936;SDS011;52707;52.086;5.418;2023-08-12T12:53:04;11.73;;;2.15;;
65936;SDS011;52707;52.086;5.418;2023-08-12T12:55:30;7.10;;;1.83;;
65936;SDS011;52707;52.086;5.418;2023-08-12T12:57:56;10.00;;;2.42;;
65936;SDS011;52707;52.086;5.418;2023-08-12T13:00:23;6.70;;;1.80;;
65936;SDS011;52707;52.086;5.418;2023-08-12T13:02:49;8.48;;;1.98;;
65936;SDS011;52707;52.086;5.418;2023-08-12T13:05:16;7.15;;;2.08;;
65936;SDS011;52707;52.086;5.418;2023-08-12T13:07:42;13.18;;;2.13;;
65936;SDS011;52707;52.086;5.418;2023-08-12T13:10:08;10.73;;;2.42;;
65936;SDS011;52707;52.086;5.418;2023-08-12T13:12:35;13.15;;;2.22;;
65936;SDS011;52707;52.086;5.418;2023-08-12T13:15:01;9.00;;;2.60;;
65936;SDS011;52707;52.086;5.418;2023-08-12T13:17:28;9.02;;;2.70;;
65936;SDS011;52707;52.086;5.418;2023-08-12T13:19:54;11.93;;;2.63;;
65936;SDS011;52707;52.086;5.418;2023-08-12T13:22:20;8.38;;;1.98;;
65936;SDS011;52707;52.086;5.418;2023-08-12T13:24:47;12.20;;;2.13;;
65936;SDS011;52707;52.086;5.418;2023-08-12T13:27:14;12.43;;;2.45;;
65936;SDS011;52707;52.086;5.418;2023-08-12T13:29:40;6.93;;;2.50;;
65936;SDS011;52707;52.086;5.418;2023-08-12T13:32:07;9.30;;;2.58;;
65936;SDS011;52707;52.086;5.418;2023-08-12T13:34:33;12.02;;;2.38;;
65936;SDS011;52707;52.086;5.418;2023-08-12T13:37:00;11.30;;;2.20;;
65936;SDS011;52707;52.086;5.418;2023-08-12T13:39:26;9.65;;;2.58;;
65936;SDS011;52707;52.086;5.418;2023-08-12T13:41:53;6.40;;;2.22;;
65936;SDS011;52707;52.086;5.418;2023-08-12T13:44:21;9.50;;;2.25;;
65936;SDS011;52707;52.086;5.418;2023-08-12T13:46:47;13.90;;;2.83;;
65936;SDS011;52707;52.086;5.418;2023-08-12T13:49:13;10.50;;;3.15;;
65936;SDS011;52707;52.086;5.418;2023-08-12T13:51:40;8.90;;;2.00;;
65936;SDS011;52707;52.086;5.418;2023-08-12T13:54:06;17.25;;;2.47;;
65936;SDS011;52707;52.086;5.418;2023-08-12T13:56:33;10.90;;;2.45;;
65936;SDS011;52707;52.086;5.418;2023-08-12T13:58:59;7.55;;;2.10;;
65936;SDS011;52707;52.086;5.418;2023-08-12T14:01:26;10.13;;;2.47;;
65936;SDS011;52707;52.086;5.418;2023-08-12T14:03:52;9.13;;;2.10;;
65936;SDS011;52707;52.086;5.418;2023-08-12T14:06:18;10.52;;;3.00;;
65936;SDS011;52707;52.086;5.418;2023-08-12T14:08:45;13.13;;;2.90;;
65936;SDS011;52707;52.086;5.418;2023-08-12T14:11:11;11.65;;;2.60;;
65936;SDS011;52707;52.086;5.418;2023-08-12T14:13:38;11.77;;;3.60;;
65936;SDS011;52707;52.086;5.418;2023-08-12T14:16:04;17.63;;;3.00;;
65936;SDS011;52707;52.086;5.418;2023-08-12T14:18:30;11.75;;;2.78;;
65936;SDS011;52707;52.086;5.418;2023-08-12T14:20:57;9.68;;;2.38;;
65936;SDS011;52707;52.086;5.418;2023-08-12T14:23:23;9.95;;;2.70;;
65936;SDS011;52707;52.086;5.418;2023-08-12T14:25:50;10.35;;;2.60;;
65936;SDS011;52707;52.086;5.418;2023-08-12T14:28:16;18.33;;;2.35;;
65936;SDS011;52707;52.086;5.418;2023-08-12T14:30:43;11.02;;;2.45;;
65936;SDS011;52707;52.086;5.418;2023-08-12T14:33:09;11.15;;;2.55;;
65936;SDS011;52707;52.086;5.418;2023-08-12T14:35:36;12.40;;;2.97;;
65936;SDS011;52707;52.086;5.418;2023-08-12T14:38:02;14.02;;;2.75;;
65936;SDS011;52707;52.086;5.418;2023-08-12T14:40:30;21.17;;;2.88;;
65936;SDS011;52707;52.086;5.418;2023-08-12T14:42:56;13.63;;;3.20;;
65936;SDS011;52707;52.086;5.418;2023-08-12T14:45:23;12.32;;;2.95;;
65936;SDS011;52707;52.086;5.418;2023-08-12T14:47:49;13.35;;;2.63;;
65936;SDS011;52707;52.086;5.418;2023-08-12T14:50:15;12.65;;;2.08;;